createdAt,value
2017-06-20T00:00:31.139Z,101095.54
2017-06-20T00:02:58.645Z,101103.39
2017-06-20T00:05:26.199Z,101106.00
2017-06-20T00:07:53.714Z,101094.10
2017-06-20T00:10:21.268Z,101098.14
2017-06-20T00:12:48.784Z,101105.25
2017-06-20T00:15:16.363Z,101101.52
2017-06-20T00:17:43.876Z,101106.20
2017-06-20T00:20:11.384Z,101100.31
2017-06-20T00:22:38.955Z,101096.83
2017-06-20T00:25:06.573Z,101091.05
2017-06-20T00:27:34.166Z,101098.38
2017-06-20T00:30:01.684Z,101100.81
2017-06-20T00:32:29.479Z,101096.80
2017-06-20T00:34:56.987Z,101094.27
2017-06-20T00:37:24.539Z,101095.48
2017-06-20T00:39:52.087Z,101093.27
2017-06-20T00:42:19.611Z,101091.61
2017-06-20T00:44:47.150Z,101092.62
2017-06-20T00:47:14.662Z,101094.81
2017-06-20T00:49:42.303Z,101086.09
2017-06-20T00:52:09.811Z,101090.35
2017-06-20T00:54:37.351Z,101083.23
2017-06-20T00:57:04.855Z,101090.59
2017-06-20T00:59:32.397Z,101090.42
2017-06-20T01:01:59.907Z,101092.58
2017-06-20T01:04:27.480Z,101083.55
2017-06-20T01:06:54.994Z,101077.80
2017-06-20T01:09:22.520Z,101074.70
2017-06-20T01:11:50.115Z,101075.85
2017-06-20T01:14:17.636Z,101077.39
2017-06-20T01:16:45.183Z,101081.82
2017-06-20T01:19:12.690Z,101071.83
2017-06-20T01:21:40.267Z,101069.98
2017-06-20T01:24:07.823Z,101067.39
2017-06-20T01:26:35.362Z,101061.41
2017-06-20T01:29:02.883Z,101060.16
2017-06-20T01:31:30.456Z,101059.09
2017-06-20T01:33:57.982Z,101063.31
2017-06-20T01:36:25.663Z,101062.27
2017-06-20T01:38:53.256Z,101057.87
2017-06-20T01:41:20.776Z,101063.69
2017-06-20T01:43:48.676Z,101059.59
2017-06-20T01:46:16.194Z,101058.86
2017-06-20T01:48:43.803Z,101062.71
2017-06-20T01:51:11.307Z,101058.07
2017-06-20T01:53:38.891Z,101058.89
2017-06-20T01:56:06.408Z,101054.63
2017-06-20T01:58:33.943Z,101055.67
2017-06-20T02:01:01.544Z,101051.44
2017-06-20T02:03:29.199Z,101062.70
2017-06-20T02:05:56.750Z,101058.49
2017-06-20T02:08:24.378Z,101060.51
2017-06-20T02:10:51.879Z,101063.42
2017-06-20T02:13:19.568Z,101068.71
2017-06-20T02:15:47.171Z,101062.47
2017-06-20T02:18:14.710Z,101067.36
2017-06-20T02:20:42.250Z,101069.27
2017-06-20T02:23:09.827Z,101065.66
2017-06-20T02:25:37.350Z,101071.31
2017-06-20T02:28:04.872Z,101070.77
2017-06-20T02:30:32.459Z,101072.59
2017-06-20T02:32:59.977Z,101069.02
2017-06-20T02:35:27.511Z,101068.44
2017-06-20T02:37:55.024Z,101065.48
2017-06-20T02:40:22.562Z,101064.86
2017-06-20T02:42:50.094Z,101070.87
2017-06-20T02:45:17.646Z,101071.47
2017-06-20T02:47:45.167Z,101065.07
2017-06-20T02:50:12.699Z,101066.98
2017-06-20T02:52:40.210Z,101068.02
2017-06-20T02:55:07.819Z,101067.37
2017-06-20T02:57:35.327Z,101065.94
2017-06-20T03:00:02.844Z,101064.62
2017-06-20T03:02:30.400Z,101071.36
2017-06-20T03:04:57.927Z,101067.84
2017-06-20T03:07:25.522Z,101069.11
2017-06-20T03:09:53.051Z,101062.85
2017-06-20T03:12:20.722Z,101066.75
2017-06-20T03:14:48.267Z,101068.94
2017-06-20T03:17:15.795Z,101062.78
2017-06-20T03:19:43.311Z,101065.30
2017-06-20T03:22:10.865Z,101064.11
2017-06-20T03:24:38.378Z,101070.84
2017-06-20T03:27:05.894Z,101068.11
2017-06-20T03:29:33.424Z,101069.83
2017-06-20T03:32:00.961Z,101065.25
2017-06-20T03:34:28.479Z,101065.61
2017-06-20T03:36:56.020Z,101075.89
2017-06-20T03:39:23.563Z,101074.17
2017-06-20T03:41:51.079Z,101078.45
2017-06-20T03:44:18.636Z,101077.98
2017-06-20T03:46:46.154Z,101081.70
2017-06-20T03:49:13.682Z,101080.72
2017-06-20T03:51:41.222Z,101078.27
2017-06-20T03:54:08.742Z,101070.48
2017-06-20T03:56:36.311Z,101068.43
2017-06-20T03:59:03.880Z,101067.16
2017-06-20T04:01:31.484Z,101065.06
2017-06-20T04:03:59.040Z,101067.98
2017-06-20T04:06:26.676Z,101070.25
2017-06-20T04:08:54.283Z,101074.66
2017-06-20T04:11:21.815Z,101073.45
2017-06-20T04:13:49.735Z,101080.42
2017-06-20T04:16:17.268Z,101076.17
2017-06-20T04:18:44.784Z,101080.10
2017-06-20T04:21:17.776Z,101083.20
2017-06-20T04:23:45.312Z,101087.30
2017-06-20T04:26:12.846Z,101087.31
2017-06-20T04:28:40.415Z,101092.45
2017-06-20T04:31:07.941Z,101095.69
2017-06-20T04:33:35.483Z,101097.08
2017-06-20T04:36:02.996Z,101092.48
2017-06-20T04:38:30.506Z,101089.06
2017-06-20T04:40:58.067Z,101090.43
2017-06-20T04:43:25.635Z,101088.70
2017-06-20T04:45:53.197Z,101094.78
2017-06-20T04:48:20.720Z,101087.02
2017-06-20T04:50:48.256Z,101088.36
2017-06-20T04:53:15.776Z,101084.98
2017-06-20T04:55:43.349Z,101083.46
2017-06-20T04:58:10.895Z,101094.51
2017-06-20T05:00:38.438Z,101092.80
2017-06-20T05:03:05.988Z,101096.80
2017-06-20T05:05:33.587Z,101093.42
2017-06-20T05:08:01.139Z,101095.81
2017-06-20T05:10:28.715Z,101096.14
2017-06-20T05:12:56.307Z,101089.24
2017-06-20T05:15:23.879Z,101093.91
2017-06-20T05:17:51.405Z,101098.36
2017-06-20T05:20:19.051Z,101096.06
2017-06-20T05:22:46.579Z,101098.91
2017-06-20T05:25:14.119Z,101099.28
2017-06-20T05:27:41.631Z,101108.74
2017-06-20T05:30:09.243Z,101101.87
2017-06-20T05:32:36.825Z,101105.39
2017-06-20T05:35:04.335Z,101103.56
2017-06-20T05:37:32.258Z,101109.03
2017-06-20T05:39:59.811Z,101110.05
2017-06-20T05:42:27.342Z,101104.70
2017-06-20T05:44:54.950Z,101108.44
2017-06-20T05:47:22.512Z,101110.98
2017-06-20T05:49:50.131Z,101111.11
2017-06-20T05:52:17.705Z,101110.03
2017-06-20T05:54:45.291Z,101110.53
2017-06-20T05:57:12.824Z,101107.34
2017-06-20T05:59:40.363Z,101106.50
2017-06-20T06:02:07.991Z,101113.70
2017-06-20T06:04:35.523Z,101113.88
2017-06-20T06:07:03.074Z,101110.63
2017-06-20T06:09:30.602Z,101105.53
2017-06-20T06:11:58.115Z,101111.11
2017-06-20T06:14:25.685Z,101117.52
2017-06-20T06:16:53.224Z,101116.51
2017-06-20T06:19:20.759Z,101115.27
2017-06-20T06:21:48.280Z,101113.66
2017-06-20T06:24:15.799Z,101118.64
2017-06-20T06:26:43.603Z,101115.24
2017-06-20T06:29:11.151Z,101125.14
2017-06-20T06:31:38.664Z,101123.60
2017-06-20T06:34:06.566Z,101123.25
2017-06-20T06:36:34.083Z,101121.32
2017-06-20T06:39:01.603Z,101120.63
2017-06-20T06:41:29.162Z,101124.80
2017-06-20T06:43:56.675Z,101127.38
2017-06-20T06:46:24.218Z,101127.75
2017-06-20T06:48:51.735Z,101130.45
2017-06-20T06:51:19.287Z,101127.92
2017-06-20T06:53:46.828Z,101135.15
2017-06-20T06:56:14.435Z,101134.39
2017-06-20T06:58:41.969Z,101134.47
2017-06-20T07:01:09.475Z,101134.42
2017-06-20T07:03:37.010Z,101140.99
2017-06-20T07:06:04.547Z,101136.13
2017-06-20T07:08:32.095Z,101135.06
2017-06-20T07:10:59.598Z,101132.63
2017-06-20T07:13:27.215Z,101124.71
2017-06-20T07:15:54.855Z,101129.11
2017-06-20T07:18:22.396Z,101126.38
2017-06-20T07:20:49.959Z,101125.24
2017-06-20T07:23:17.539Z,101138.19
2017-06-20T07:25:45.159Z,101130.80
2017-06-20T07:28:12.720Z,101122.73
2017-06-20T07:30:40.301Z,101124.67
2017-06-20T07:33:07.820Z,101125.63
2017-06-20T07:35:35.367Z,101125.50
2017-06-20T07:38:02.876Z,101118.02
2017-06-20T07:40:30.435Z,101116.59
2017-06-20T07:42:57.959Z,101119.55
2017-06-20T07:45:25.494Z,101125.31
2017-06-20T07:47:53.007Z,101128.56
2017-06-20T07:50:20.570Z,101130.73
2017-06-20T07:52:48.947Z,101134.32
2017-06-20T07:55:16.495Z,101137.50
2017-06-20T07:57:44.018Z,101135.52
2017-06-20T08:00:11.571Z,101131.47
2017-06-20T08:02:39.091Z,101137.69
2017-06-20T08:05:06.607Z,101131.87
2017-06-20T08:07:34.142Z,101132.72
2017-06-20T08:10:01.682Z,101135.23
2017-06-20T08:12:29.302Z,101130.79
2017-06-20T08:14:56.813Z,101138.44
2017-06-20T08:17:24.384Z,101131.69
2017-06-20T08:19:51.946Z,101134.39
2017-06-20T08:22:19.491Z,101135.42
2017-06-20T08:24:47.029Z,101128.67
2017-06-20T08:27:14.543Z,101129.40
2017-06-20T08:29:42.087Z,101129.93
2017-06-20T08:32:09.599Z,101132.22
2017-06-20T08:34:37.162Z,101130.03
2017-06-20T08:37:10.227Z,101125.73
2017-06-20T08:39:37.779Z,101128.00
2017-06-20T08:42:05.347Z,101125.55
2017-06-20T08:44:32.891Z,101133.88
2017-06-20T08:47:00.432Z,101129.73
2017-06-20T08:49:27.971Z,101134.59
2017-06-20T08:51:55.486Z,101134.34
2017-06-20T08:54:23.068Z,101136.94
2017-06-20T08:56:50.587Z,101134.70
2017-06-20T08:59:18.135Z,101128.34
2017-06-20T09:01:45.680Z,101126.57
2017-06-20T09:04:13.230Z,101130.33
2017-06-20T09:06:40.740Z,101126.56
2017-06-20T09:09:08.271Z,101127.20
2017-06-20T09:11:35.802Z,101130.05
2017-06-20T09:14:03.365Z,101124.48
2017-06-20T09:16:30.939Z,101119.30
2017-06-20T09:18:58.478Z,101118.16
2017-06-20T09:21:26.039Z,101112.14
2017-06-20T09:23:53.560Z,101115.13
2017-06-20T09:26:21.115Z,101111.86
2017-06-20T09:28:48.635Z,101115.16
2017-06-20T09:31:16.190Z,101118.95
2017-06-20T09:33:43.700Z,101115.61
2017-06-20T09:36:11.260Z,101115.97
2017-06-20T09:38:38.783Z,101111.20
2017-06-20T09:41:06.363Z,101116.87
2017-06-20T09:43:33.890Z,101114.97
2017-06-20T09:46:01.439Z,101112.17
2017-06-20T09:48:28.963Z,101119.33
2017-06-20T09:50:56.514Z,101118.37
2017-06-20T09:53:24.047Z,101117.10
2017-06-20T09:55:51.653Z,101114.31
2017-06-20T09:58:19.231Z,101115.96
2017-06-20T10:00:46.759Z,101109.25
2017-06-20T10:03:14.302Z,101119.48
2017-06-20T10:05:41.811Z,101118.45
2017-06-20T10:08:09.355Z,101115.25
2017-06-20T10:10:36.924Z,101119.45
2017-06-20T10:13:04.499Z,101119.31
2017-06-20T10:15:32.005Z,101116.58
2017-06-20T10:17:59.515Z,101116.98
2017-06-20T10:20:27.063Z,101120.22
2017-06-20T10:22:54.583Z,101112.88
2017-06-20T10:25:22.163Z,101115.24
2017-06-20T10:27:49.680Z,101115.59
2017-06-20T10:30:17.224Z,101118.59
2017-06-20T10:32:44.732Z,101121.84
2017-06-20T10:35:12.265Z,101123.55
2017-06-20T10:37:39.775Z,101112.59
2017-06-20T10:40:07.355Z,101113.77
2017-06-20T10:42:34.875Z,101114.19
2017-06-20T10:45:02.424Z,101099.15
2017-06-20T10:47:29.948Z,101106.84
2017-06-20T10:49:57.500Z,101107.98
2017-06-20T10:52:25.008Z,101109.79
2017-06-20T10:54:52.579Z,101108.89
2017-06-20T10:57:20.104Z,101104.88
2017-06-20T10:59:47.672Z,101105.77
2017-06-20T11:02:15.192Z,101103.62
2017-06-20T11:04:42.712Z,101103.89
2017-06-20T11:07:10.258Z,101102.04
2017-06-20T11:09:37.791Z,101100.02
2017-06-20T11:12:05.339Z,101090.84
2017-06-20T11:14:32.860Z,101094.02
2017-06-20T11:17:00.413Z,101097.17
2017-06-20T11:19:27.955Z,101092.09
2017-06-20T11:21:55.607Z,101092.52
2017-06-20T11:24:23.127Z,101090.91
2017-06-20T11:26:50.654Z,101082.61
2017-06-20T11:29:18.184Z,101081.27
2017-06-20T11:31:45.724Z,101084.41
2017-06-20T11:34:13.247Z,101077.20
2017-06-20T11:36:40.803Z,101084.84
2017-06-20T11:39:08.312Z,101080.20
2017-06-20T11:41:35.867Z,101079.85
2017-06-20T11:44:03.374Z,101076.50
2017-06-20T11:46:30.944Z,101078.31
2017-06-20T11:48:58.461Z,101076.95
2017-06-20T11:51:25.987Z,101079.70
2017-06-20T11:53:53.561Z,101087.38
2017-06-20T11:56:21.083Z,101086.78
2017-06-20T11:58:48.628Z,101081.64
2017-06-20T12:01:16.145Z,101089.12
2017-06-20T12:03:43.689Z,101083.77
2017-06-20T12:06:11.232Z,101070.35
2017-06-20T12:08:38.797Z,101081.48
2017-06-20T12:11:06.308Z,101081.31
2017-06-20T12:13:33.860Z,101074.97
2017-06-20T12:16:01.383Z,101070.80
2017-06-20T12:18:29.016Z,101063.65
2017-06-20T12:20:56.527Z,101072.75
2017-06-20T12:23:24.073Z,101074.52
2017-06-20T12:25:51.585Z,101058.89
2017-06-20T12:28:19.115Z,101064.45
2017-06-20T12:30:46.641Z,101070.59
2017-06-20T12:33:14.198Z,101063.86
2017-06-20T12:35:41.711Z,101066.64
2017-06-20T12:38:09.263Z,101063.08
2017-06-20T12:40:36.785Z,101059.89
2017-06-20T12:43:04.315Z,101059.59
2017-06-20T12:45:31.836Z,101053.26
2017-06-20T12:47:59.368Z,101060.57
2017-06-20T12:50:26.895Z,101063.93
2017-06-20T12:52:54.436Z,101060.16
2017-06-20T12:55:21.940Z,101066.05
2017-06-20T12:57:49.504Z,101058.16
2017-06-20T13:00:17.027Z,101059.50
2017-06-20T13:02:44.583Z,101056.97
2017-06-20T13:05:12.100Z,101061.46
2017-06-20T13:07:39.654Z,101069.50
2017-06-20T13:10:07.203Z,101072.61
2017-06-20T13:12:34.748Z,101077.70
2017-06-20T13:15:02.292Z,101069.91
2017-06-20T13:17:29.856Z,101070.04
2017-06-20T13:19:57.390Z,101071.55
2017-06-20T13:22:24.906Z,101068.45
2017-06-20T13:24:52.450Z,101064.41
2017-06-20T13:27:19.962Z,101065.17
2017-06-20T13:29:47.523Z,101065.80
2017-06-20T13:32:15.032Z,101057.65
2017-06-20T13:34:42.570Z,101062.26
2017-06-20T13:37:10.104Z,101065.43
2017-06-20T13:39:37.640Z,101066.06
2017-06-20T13:42:05.151Z,101064.77
2017-06-20T13:44:32.700Z,101068.35
2017-06-20T13:47:00.260Z,101057.57
2017-06-20T13:49:27.845Z,101060.83
2017-06-20T13:51:55.369Z,101057.19
2017-06-20T13:54:22.935Z,101058.70
2017-06-20T13:56:50.458Z,101059.89
2017-06-20T13:59:17.967Z,101062.26
2017-06-20T14:01:45.527Z,101054.68
2017-06-20T14:04:13.128Z,101057.28
2017-06-20T14:06:40.707Z,101048.94
2017-06-20T14:09:08.340Z,101050.87
2017-06-20T14:11:35.943Z,101052.36
2017-06-20T14:14:03.556Z,101053.65
2017-06-20T14:16:31.105Z,101056.95
2017-06-20T14:18:58.635Z,101052.13
2017-06-20T14:21:26.187Z,101049.01
2017-06-20T14:23:53.700Z,101049.95
2017-06-20T14:26:21.260Z,101054.34
2017-06-20T14:28:48.827Z,101057.45
2017-06-20T14:31:16.388Z,101052.81
2017-06-20T14:33:43.916Z,101049.40
2017-06-20T14:36:11.471Z,101056.80
2017-06-20T14:38:38.983Z,101055.87
2017-06-20T14:41:06.532Z,101054.96
2017-06-20T14:43:34.044Z,101054.16
2017-06-20T14:46:01.593Z,101056.42
2017-06-20T14:48:29.108Z,101050.37
2017-06-20T14:50:56.666Z,101060.44
2017-06-20T14:53:24.198Z,101046.61
2017-06-20T14:55:51.754Z,101047.59
2017-06-20T14:58:19.277Z,101052.56
2017-06-20T15:00:46.815Z,101041.09
2017-06-20T15:03:14.369Z,101048.77
2017-06-20T15:05:41.956Z,101049.53
2017-06-20T15:08:09.503Z,101039.88
2017-06-20T15:10:37.072Z,101043.27
2017-06-20T15:13:04.652Z,101040.77
2017-06-20T15:15:32.209Z,101042.41
2017-06-20T15:17:59.727Z,101044.13
2017-06-20T15:20:27.286Z,101040.37
2017-06-20T15:22:54.836Z,101045.00
2017-06-20T15:25:22.397Z,101037.45
2017-06-20T15:27:49.927Z,101041.27
2017-06-20T15:30:17.488Z,101034.27
2017-06-20T15:32:45.740Z,101028.41
2017-06-20T15:35:13.327Z,101031.98
2017-06-20T15:37:40.854Z,101034.63
2017-06-20T15:40:08.423Z,101034.25
2017-06-20T15:42:35.984Z,101025.28
2017-06-20T15:45:03.668Z,101027.50
2017-06-20T15:47:31.199Z,101026.39
2017-06-20T15:49:58.703Z,101027.30
2017-06-20T15:52:26.263Z,101029.80
2017-06-20T15:54:53.788Z,101029.52
2017-06-20T15:57:21.364Z,101026.00
2017-06-20T15:59:48.896Z,101027.09
2017-06-20T16:02:16.460Z,101031.67
2017-06-20T16:04:43.972Z,101028.34
2017-06-20T16:07:11.660Z,101024.72
2017-06-20T16:09:39.188Z,101029.92
2017-06-20T16:12:06.716Z,101028.94
2017-06-20T16:14:34.269Z,101028.50
2017-06-20T16:17:01.781Z,101021.83
2017-06-20T16:19:29.343Z,101023.13
2017-06-20T16:21:56.855Z,101019.25
2017-06-20T16:24:24.406Z,101021.71
2017-06-20T16:26:51.931Z,101026.36
2017-06-20T16:29:19.658Z,101023.91
2017-06-20T16:31:47.183Z,101024.03
2017-06-20T16:34:14.721Z,101025.54
2017-06-20T16:36:42.357Z,101023.60
2017-06-20T16:39:09.896Z,101015.61
2017-06-20T16:41:37.443Z,101017.08
2017-06-20T16:44:04.930Z,101017.22
2017-06-20T16:46:32.700Z,101016.78
2017-06-20T16:49:00.213Z,101020.28
2017-06-20T16:51:27.744Z,101019.70
2017-06-20T16:53:55.304Z,101016.28
2017-06-20T16:56:22.823Z,101027.76
2017-06-20T16:58:50.608Z,101024.92
2017-06-20T17:01:18.136Z,101012.30
2017-06-20T17:03:45.668Z,101011.54
2017-06-20T17:06:13.242Z,101012.27
2017-06-20T17:08:40.767Z,101009.88
2017-06-20T17:11:08.491Z,101020.80
2017-06-20T17:13:36.007Z,101021.64
2017-06-20T17:16:03.529Z,101027.59
2017-06-20T17:18:31.104Z,101026.14
2017-06-20T17:20:58.621Z,101021.58
2017-06-20T17:23:26.188Z,101024.50
2017-06-20T17:25:53.707Z,101022.09
2017-06-20T17:28:21.279Z,101026.81
2017-06-20T17:30:48.808Z,101036.76
2017-06-20T17:33:16.347Z,101038.80
2017-06-20T17:35:43.934Z,101033.06
2017-06-20T17:38:11.447Z,101035.28
2017-06-20T17:40:39.044Z,101032.33
2017-06-20T17:43:06.579Z,101033.31
2017-06-20T17:45:34.184Z,101035.31
2017-06-20T17:48:01.750Z,101035.09
2017-06-20T17:50:29.291Z,101042.18
2017-06-20T17:52:56.855Z,101042.20
2017-06-20T17:55:24.399Z,101036.87
2017-06-20T17:57:52.038Z,101042.28
2017-06-20T18:00:19.679Z,101041.23
2017-06-20T18:02:47.247Z,101044.45
2017-06-20T18:05:14.912Z,101049.41
2017-06-20T18:07:42.438Z,101051.97
2017-06-20T18:10:10.012Z,101057.13
2017-06-20T18:12:37.544Z,101061.27
2017-06-20T18:15:05.109Z,101062.27
2017-06-20T18:17:32.635Z,101065.61
2017-06-20T18:20:00.555Z,101061.64
2017-06-20T18:22:28.403Z,101063.43
2017-06-20T18:24:55.928Z,101067.38
2017-06-20T18:27:23.483Z,101075.41
2017-06-20T18:29:51.015Z,101084.07
2017-06-20T18:32:18.694Z,101091.37
2017-06-20T18:34:46.268Z,101085.72
2017-06-20T18:37:13.831Z,101085.64
2017-06-20T18:39:41.400Z,101088.91
2017-06-20T18:42:08.937Z,101089.49
2017-06-20T18:44:36.597Z,101088.58
2017-06-20T18:47:04.090Z,101094.80
2017-06-20T18:49:31.613Z,101095.38
2017-06-20T18:51:59.168Z,101106.69
2017-06-20T18:54:26.700Z,101109.81
2017-06-20T18:56:54.281Z,101115.33
2017-06-20T18:59:21.795Z,101118.37
2017-06-20T19:01:49.487Z,101115.34
2017-06-20T19:04:17.020Z,101124.95
2017-06-20T19:06:44.554Z,101120.63
2017-06-20T19:09:12.131Z,101120.59
2017-06-20T19:11:39.649Z,101125.58
2017-06-20T19:14:07.213Z,101124.38
2017-06-20T19:16:34.790Z,101135.20
2017-06-20T19:19:02.684Z,101129.27
2017-06-20T19:21:30.221Z,101129.01
2017-06-20T19:23:57.758Z,101132.48
2017-06-20T19:26:25.339Z,101136.13
2017-06-20T19:28:52.859Z,101136.26
2017-06-20T19:31:20.483Z,101144.09
2017-06-20T19:33:48.031Z,101148.06
2017-06-20T19:36:15.908Z,101164.01
2017-06-20T19:38:43.432Z,101159.03
2017-06-20T19:41:10.957Z,101164.70
2017-06-20T19:43:38.533Z,101166.52
2017-06-20T19:46:06.086Z,101172.09
2017-06-20T19:48:33.643Z,101174.88
2017-06-20T19:51:01.179Z,101175.91
2017-06-20T19:53:28.772Z,101182.95
2017-06-20T19:55:56.285Z,101181.55
2017-06-20T19:58:23.988Z,101184.59
2017-06-20T20:00:51.530Z,101191.55
2017-06-20T20:03:19.067Z,101187.10
2017-06-20T20:05:46.648Z,101187.66
2017-06-20T20:08:14.214Z,101187.94
2017-06-20T20:10:41.891Z,101193.72
2017-06-20T20:13:09.449Z,101192.67
2017-06-20T20:15:37.016Z,101194.58
2017-06-20T20:18:04.594Z,101194.80
2017-06-20T20:20:32.183Z,101204.00
2017-06-20T20:22:59.811Z,101206.87
2017-06-20T20:25:27.324Z,101203.85
2017-06-20T20:27:54.879Z,101201.47
2017-06-20T20:30:22.396Z,101202.59
2017-06-20T20:32:50.071Z,101208.15
2017-06-20T20:35:17.612Z,101203.89
2017-06-20T20:37:45.136Z,101205.98
2017-06-20T20:40:12.705Z,101208.33
2017-06-20T20:42:40.235Z,101212.41
2017-06-20T20:45:07.847Z,101210.44
2017-06-20T20:47:35.499Z,101211.76
2017-06-20T20:50:03.244Z,101213.17
2017-06-20T20:52:30.813Z,101215.64
2017-06-20T20:54:58.383Z,101211.76
2017-06-20T20:57:26.143Z,101211.70
2017-06-20T20:59:53.700Z,101215.24
2017-06-20T21:02:21.252Z,101213.55
2017-06-20T21:04:48.773Z,101222.41
2017-06-20T21:07:16.375Z,101218.91
2017-06-20T21:09:43.922Z,101223.36
2017-06-20T21:12:11.785Z,101215.25
2017-06-20T21:14:39.307Z,101216.87
2017-06-20T21:17:06.831Z,101225.66
2017-06-20T21:19:34.398Z,101227.86
2017-06-20T21:22:01.916Z,101225.10
2017-06-20T21:24:29.477Z,101225.95
2017-06-20T21:26:57.004Z,101230.58
2017-06-20T21:29:24.674Z,101223.66
2017-06-20T21:31:52.419Z,101224.69
2017-06-20T21:34:19.954Z,101225.45
2017-06-20T21:36:47.501Z,101221.53
2017-06-20T21:39:15.036Z,101218.65
2017-06-20T21:41:42.619Z,101218.17
2017-06-20T21:44:10.168Z,101221.05
2017-06-20T21:46:37.738Z,101221.92
2017-06-20T21:49:05.263Z,101225.84
2017-06-20T21:51:32.937Z,101224.62
2017-06-20T21:54:00.466Z,101227.75
2017-06-20T21:56:28.367Z,101222.90
2017-06-20T21:58:55.895Z,101233.02
2017-06-20T22:01:23.412Z,101229.00
2017-06-20T22:03:50.975Z,101230.15
2017-06-20T22:06:18.491Z,101228.72
2017-06-20T22:08:46.043Z,101229.73
2017-06-20T22:11:13.570Z,101233.09
2017-06-20T22:13:41.235Z,101231.39
2017-06-20T22:16:08.775Z,101236.31
2017-06-20T22:18:36.303Z,101241.86
2017-06-20T22:21:03.862Z,101240.54
2017-06-20T22:23:31.408Z,101243.41
2017-06-20T22:25:58.995Z,101248.28
2017-06-20T22:28:26.628Z,101251.96
2017-06-20T22:30:54.364Z,101250.03
2017-06-20T22:33:21.888Z,101249.59
2017-06-20T22:35:49.482Z,101250.42
2017-06-20T22:38:17.054Z,101252.30
2017-06-20T22:40:44.644Z,101249.25
2017-06-20T22:43:12.211Z,101250.52
2017-06-20T22:45:39.819Z,101251.89
2017-06-20T22:48:07.503Z,101248.16
2017-06-20T22:50:35.099Z,101247.89
2017-06-20T22:53:02.665Z,101250.64
2017-06-20T22:55:30.215Z,101248.06
2017-06-20T22:57:57.720Z,101252.98
2017-06-20T23:00:25.608Z,101245.25
2017-06-20T23:02:53.151Z,101243.66
2017-06-20T23:05:20.662Z,101244.34
2017-06-20T23:07:48.215Z,101240.30
2017-06-20T23:10:15.741Z,101239.50
2017-06-20T23:12:43.286Z,101241.21
2017-06-20T23:15:10.858Z,101237.59
2017-06-20T23:17:38.526Z,101236.29
2017-06-20T23:20:06.050Z,101237.81
2017-06-20T23:22:33.598Z,101241.06
2017-06-20T23:25:01.115Z,101233.83
2017-06-20T23:27:28.657Z,101233.30
2017-06-20T23:29:56.207Z,101238.42
2017-06-20T23:32:23.786Z,101239.66
2017-06-20T23:34:51.483Z,101236.22
2017-06-20T23:37:19.007Z,101242.25
2017-06-20T23:39:46.532Z,101236.38
2017-06-20T23:42:14.095Z,101237.32
2017-06-20T23:44:41.611Z,101235.56
2017-06-20T23:47:09.283Z,101239.75
2017-06-20T23:49:36.806Z,101243.89
2017-06-20T23:52:04.342Z,101238.23
2017-06-20T23:54:31.915Z,101240.02
2017-06-20T23:56:59.426Z,101237.34
2017-06-20T23:59:26.979Z,101231.80
